ESOK/KSD METAR and TAF weather

Enter ICAO airport designator
Station Type Date Time Source
ESOK METAR 2021/01/17 18:50 UTC NOAA

ESOK 171850Z AUTO 21004KT 9999 OVC036/// M04/M04 Q1017


Station Type Date Time Source
ESOK Decoded METAR 2021/01/17 18:50 UTC NOAA

Karlstad , Sweden (ESOK) 59-26-41N 013-20-15E
Jan 17, 2021 - 01:50 PM EST / 2021.01.17 1850 UTC
Wind: from the SSW (210 degrees) at 5 MPH (4 KT):0
Visibility: greater than 7 mile(s):0
Sky conditions: overcast
Temperature: 24 F (-4 C)
Windchill: 17 F (-8 C):1
Dew Point: 24 F (-4 C)
Relative Humidity: 100%
Pressure (altimeter): 30.03 in. Hg (1017 hPa)
ob: ESOK 171850Z AUTO 21004KT 9999 OVC036/// M04/M04 Q1017
cycle: 19

Station Type Date Time Source
ESOK TAF 2017/05/22 06:33 UTC NOAA

TAF ESOK 220530Z 2206/2224 28006KT CAVOK

Example: see airport list